createdAt,value
2018-08-04T00:00:58.711Z,0.10
2018-08-04T00:01:58.751Z,0.10
2018-08-04T00:02:58.717Z,0.10
2018-08-04T00:03:58.718Z,0.10
2018-08-04T00:04:58.726Z,0.10
2018-08-04T00:05:58.728Z,0.00
2018-08-04T00:06:58.736Z,0.10
2018-08-04T00:07:58.739Z,0.00
2018-08-04T00:08:58.737Z,0.10
2018-08-04T00:09:58.745Z,0.10
2018-08-04T00:10:58.717Z,0.10
2018-08-04T00:11:58.815Z,0.10
2018-08-04T00:12:58.739Z,0.10
2018-08-04T00:13:58.738Z,0.10
2018-08-04T00:14:58.738Z,0.10
2018-08-04T00:15:58.743Z,0.10
2018-08-04T00:16:58.744Z,0.10
2018-08-04T00:17:58.747Z,0.10
2018-08-04T00:18:58.737Z,0.10
2018-08-04T00:19:58.750Z,0.10
2018-08-04T00:20:58.735Z,0.10
2018-08-04T00:21:58.733Z,0.10
2018-08-04T00:22:58.735Z,0.10
2018-08-04T00:23:58.734Z,0.10
2018-08-04T00:24:58.735Z,0.10
2018-08-04T00:25:58.740Z,0.10
2018-08-04T00:26:58.740Z,0.10
2018-08-04T00:27:58.736Z,0.10
2018-08-04T00:28:58.747Z,0.10
2018-08-04T00:29:58.741Z,0.10
2018-08-04T00:30:58.745Z,0.10
2018-08-04T00:31:58.738Z,0.10
2018-08-04T00:32:58.737Z,0.10
2018-08-04T00:33:58.740Z,0.10
2018-08-04T00:34:58.767Z,0.10
2018-08-04T00:35:58.744Z,0.10
2018-08-04T00:36:58.753Z,0.10
2018-08-04T00:37:58.744Z,0.10
2018-08-04T00:38:58.744Z,0.10
2018-08-04T00:39:58.745Z,0.10
2018-08-04T00:40:58.747Z,0.10
2018-08-04T00:41:58.750Z,0.10
2018-08-04T00:42:58.747Z,0.10
2018-08-04T00:43:58.749Z,0.10
2018-08-04T00:44:58.748Z,0.00
2018-08-04T00:45:58.751Z,0.10
2018-08-04T00:46:58.749Z,0.10
2018-08-04T00:47:58.749Z,0.10
2018-08-04T00:48:58.748Z,0.10
2018-08-04T00:49:58.780Z,0.10
2018-08-04T00:50:58.753Z,0.10
2018-08-04T00:51:58.750Z,0.10
2018-08-04T00:52:58.750Z,0.10
2018-08-04T00:53:58.752Z,0.10
2018-08-04T00:54:58.754Z,0.10
2018-08-04T00:55:58.751Z,0.10
2018-08-04T00:56:58.757Z,0.10
2018-08-04T00:57:58.752Z,0.00
2018-08-04T00:58:58.754Z,0.10
2018-08-04T00:59:58.753Z,0.10
2018-08-04T01:00:58.753Z,0.10
2018-08-04T01:01:58.756Z,0.10
2018-08-04T01:02:58.754Z,0.10
2018-08-04T01:03:58.833Z,0.10
2018-08-04T01:04:58.794Z,0.10
2018-08-04T01:05:58.768Z,0.10
2018-08-04T01:06:58.758Z,0.10
2018-08-04T01:07:58.758Z,0.10
2018-08-04T01:08:58.757Z,0.10
2018-08-04T01:09:58.755Z,0.10
2018-08-04T01:10:58.762Z,0.10
2018-08-04T01:11:58.755Z,0.10
2018-08-04T01:12:58.756Z,0.10
2018-08-04T01:13:58.757Z,0.10
2018-08-04T01:14:58.758Z,0.10
2018-08-04T01:15:58.757Z,0.10
2018-08-04T01:16:58.761Z,0.10
2018-08-04T01:17:58.759Z,0.10
2018-08-04T01:18:58.758Z,0.10
2018-08-04T01:19:58.780Z,0.10
2018-08-04T01:20:58.793Z,0.10
2018-08-04T01:21:58.797Z,0.10
2018-08-04T01:22:58.760Z,0.10
2018-08-04T01:23:58.795Z,0.10
2018-08-04T01:24:58.773Z,0.10
2018-08-04T01:25:58.760Z,0.10
2018-08-04T01:26:58.790Z,0.10
2018-08-04T01:27:58.770Z,0.10
2018-08-04T01:28:58.774Z,0.10
2018-08-04T01:29:58.762Z,0.10
2018-08-04T02:04:39.265Z,0.20
2018-08-04T02:05:39.241Z,0.20
2018-08-04T02:07:32.157Z,0.20
2018-08-04T02:08:32.134Z,0.20
2018-08-04T02:10:25.072Z,0.20
2018-08-04T02:11:25.061Z,0.20
2018-08-04T02:13:18.013Z,0.20
2018-08-04T02:14:17.949Z,0.10
2018-08-04T02:16:10.894Z,0.10
2018-08-04T02:17:10.872Z,0.10
2018-08-04T02:19:03.793Z,0.10
2018-08-04T02:20:03.771Z,0.10
2018-08-04T02:21:56.681Z,0.10
2018-08-04T02:22:56.672Z,0.10
2018-08-04T02:24:49.554Z,0.10
2018-08-04T02:25:49.543Z,0.10
2018-08-04T02:27:42.455Z,0.10
2018-08-04T02:28:42.442Z,0.10
2018-08-04T02:30:35.350Z,0.10
2018-08-04T02:31:35.340Z,0.10
2018-08-04T02:33:28.268Z,0.10
2018-08-04T02:34:28.247Z,0.10
2018-08-04T02:36:21.199Z,0.10
2018-08-04T02:37:21.181Z,0.10
2018-08-04T02:39:14.083Z,0.10
2018-08-04T02:40:14.073Z,0.10
2018-08-04T02:42:06.992Z,0.10
2018-08-04T02:43:06.974Z,0.10
2018-08-04T02:44:59.895Z,0.10
2018-08-04T02:45:59.886Z,0.10
2018-08-04T02:47:52.858Z,0.10
2018-08-04T02:48:52.840Z,0.10
2018-08-04T02:50:45.757Z,0.10
2018-08-04T02:51:45.753Z,0.10
2018-08-04T02:53:38.667Z,0.10
2018-08-04T02:54:38.660Z,0.10
2018-08-04T02:56:31.570Z,0.10
2018-08-04T02:57:31.557Z,0.10
2018-08-04T02:59:24.473Z,0.10
2018-08-04T03:00:24.471Z,0.10
2018-08-04T03:02:17.382Z,0.10
2018-08-04T03:03:17.367Z,0.10
2018-08-04T03:05:10.287Z,0.10
2018-08-04T03:06:10.277Z,0.10
2018-08-04T03:08:03.213Z,0.10
2018-08-04T03:09:03.192Z,0.10
2018-08-04T03:10:56.091Z,0.10
2018-08-04T03:11:56.087Z,0.10
2018-08-04T03:13:49.002Z,0.00
2018-08-04T03:14:48.982Z,0.10
2018-08-04T03:16:41.909Z,0.10
2018-08-04T03:17:41.886Z,0.10
2018-08-04T03:19:34.817Z,0.10
2018-08-04T03:20:34.802Z,0.10
2018-08-04T03:22:27.710Z,0.10
2018-08-04T03:23:27.691Z,0.10
2018-08-04T03:25:20.595Z,0.10
2018-08-04T03:26:20.584Z,0.10
2018-08-04T03:28:13.502Z,0.10
2018-08-04T03:29:13.485Z,0.10
2018-08-04T03:31:06.425Z,0.10
2018-08-04T03:32:06.405Z,0.10
2018-08-04T03:33:59.320Z,0.10
2018-08-04T03:34:59.298Z,0.10
2018-08-04T03:36:52.224Z,0.10
2018-08-04T03:37:52.218Z,0.10
2018-08-04T03:39:45.097Z,0.10
2018-08-04T03:40:45.090Z,0.10
2018-08-04T03:42:38.039Z,0.10
2018-08-04T03:43:38.013Z,0.10
2018-08-04T03:45:30.934Z,0.20
2018-08-04T03:46:30.932Z,0.10
2018-08-04T03:48:23.861Z,0.10
2018-08-04T03:49:23.842Z,0.10
2018-08-04T03:51:17.518Z,0.10
2018-08-04T03:52:17.506Z,0.10
2018-08-04T03:54:10.966Z,0.10
2018-08-04T03:55:10.949Z,0.10
2018-08-04T03:57:03.848Z,0.10
2018-08-04T03:58:03.871Z,0.10
2018-08-04T03:59:56.793Z,0.10
2018-08-04T04:00:56.774Z,0.10
2018-08-04T04:02:49.707Z,0.10
2018-08-04T04:03:49.688Z,0.10
2018-08-04T04:05:42.633Z,0.10
2018-08-04T04:06:42.653Z,0.10
2018-08-04T04:07:42.610Z,0.10
2018-08-04T04:08:42.605Z,0.10
2018-08-04T04:09:42.605Z,0.10
2018-08-04T04:10:42.608Z,0.10
2018-08-04T04:11:42.606Z,0.10
2018-08-04T04:12:42.608Z,0.10
2018-08-04T04:13:42.608Z,0.10
2018-08-04T04:14:42.603Z,0.10
2018-08-04T04:15:42.601Z,0.10
2018-08-04T04:16:42.603Z,0.10
2018-08-04T04:17:42.603Z,0.10
2018-08-04T04:18:42.602Z,0.10
2018-08-04T04:19:42.602Z,0.10
2018-08-04T04:20:42.602Z,0.10
2018-08-04T04:21:42.610Z,0.10
2018-08-04T04:22:42.601Z,0.10
2018-08-04T04:23:42.607Z,0.10
2018-08-04T04:24:42.599Z,0.10
2018-08-04T04:25:42.601Z,0.10
2018-08-04T04:26:42.616Z,0.10
2018-08-04T04:27:42.609Z,0.10
2018-08-04T04:28:42.620Z,0.10
2018-08-04T04:29:42.597Z,0.10
2018-08-04T04:30:42.598Z,0.10
2018-08-04T04:31:42.631Z,0.10
2018-08-04T04:32:42.596Z,0.10
2018-08-04T04:33:42.591Z,0.10
2018-08-04T04:34:42.597Z,0.10
2018-08-04T04:35:42.598Z,0.10
2018-08-04T04:36:42.595Z,0.10
2018-08-04T04:37:42.593Z,0.10
2018-08-04T04:38:42.595Z,0.10
2018-08-04T04:39:42.595Z,0.10
2018-08-04T04:40:42.595Z,0.10
2018-08-04T04:41:42.595Z,0.10
2018-08-04T04:42:42.593Z,0.10
2018-08-04T04:43:42.597Z,0.10
2018-08-04T04:44:42.596Z,0.10
2018-08-04T04:45:42.595Z,0.10
2018-08-04T04:46:42.594Z,0.10
2018-08-04T04:47:42.597Z,0.10
2018-08-04T04:48:42.597Z,0.10
2018-08-04T04:49:42.595Z,0.10
2018-08-04T04:50:42.599Z,0.10
2018-08-04T04:51:42.597Z,0.10
2018-08-04T04:52:42.602Z,0.10
2018-08-04T04:53:42.597Z,0.10
2018-08-04T04:54:42.615Z,0.10
2018-08-04T04:55:42.598Z,0.10
2018-08-04T04:56:42.603Z,0.10
2018-08-04T04:57:42.597Z,0.10
2018-08-04T04:58:42.604Z,0.10
2018-08-04T04:59:42.605Z,0.10
2018-08-04T05:00:42.603Z,0.10
2018-08-04T05:01:42.610Z,0.10
2018-08-04T05:02:42.601Z,0.10
2018-08-04T05:03:42.602Z,0.10
2018-08-04T05:04:42.603Z,0.10
2018-08-04T05:05:42.600Z,0.10
2018-08-04T05:06:42.606Z,0.10
2018-08-04T05:07:42.603Z,0.10
2018-08-04T05:08:42.650Z,0.10
2018-08-04T05:09:42.609Z,0.10
2018-08-04T05:10:42.606Z,0.10
2018-08-04T05:11:43.577Z,0.10
2018-08-04T05:12:42.608Z,0.10
2018-08-04T05:13:42.607Z,0.10
2018-08-04T05:14:42.611Z,0.10
2018-08-04T05:15:42.612Z,0.10
2018-08-04T05:16:42.611Z,0.10
2018-08-04T05:17:42.614Z,0.10
2018-08-04T05:18:42.615Z,0.10
2018-08-04T05:19:42.613Z,0.10
2018-08-04T05:20:42.616Z,0.10
2018-08-04T05:21:42.615Z,0.10
2018-08-04T05:22:42.621Z,0.10
2018-08-04T05:23:42.617Z,0.10
2018-08-04T05:24:42.641Z,0.10
2018-08-04T05:25:42.620Z,0.10
2018-08-04T05:26:42.629Z,0.10
2018-08-04T05:27:42.624Z,0.10
2018-08-04T05:28:42.632Z,0.10
2018-08-04T05:29:42.627Z,0.10
2018-08-04T05:30:42.629Z,0.10
2018-08-04T05:31:42.657Z,0.10
2018-08-04T05:32:42.630Z,0.10
2018-08-04T05:33:42.631Z,0.10
2018-08-04T05:34:42.660Z,0.10
2018-08-04T05:35:42.659Z,0.10
2018-08-04T05:36:42.637Z,0.10
2018-08-04T05:37:42.638Z,0.10
2018-08-04T05:38:42.640Z,0.10
2018-08-04T05:39:42.642Z,0.10
2018-08-04T05:40:42.650Z,0.10
2018-08-04T05:41:42.643Z,0.10
2018-08-04T05:42:42.648Z,0.10
2018-08-04T05:43:42.665Z,0.10
2018-08-04T05:44:42.651Z,0.10
2018-08-04T05:45:42.654Z,0.10
2018-08-04T05:46:42.660Z,0.10
2018-08-04T05:47:42.658Z,0.10
2018-08-04T05:48:42.661Z,0.10
2018-08-04T05:49:42.665Z,0.10
2018-08-04T05:50:42.663Z,0.10
2018-08-04T05:51:42.665Z,0.10
2018-08-04T05:52:42.674Z,0.10
2018-08-04T05:53:42.674Z,0.10
2018-08-04T05:54:42.689Z,0.10
2018-08-04T05:55:42.686Z,0.10
2018-08-04T05:56:42.682Z,0.10
2018-08-04T05:57:42.678Z,0.10
2018-08-04T05:58:42.705Z,0.10
2018-08-04T05:59:42.691Z,0.10
2018-08-04T06:00:42.689Z,0.10
2018-08-04T06:01:42.696Z,0.10
2018-08-04T06:02:42.692Z,0.10
2018-08-04T06:03:42.696Z,0.10
2018-08-04T06:04:42.697Z,0.10
2018-08-04T06:05:42.718Z,0.10
2018-08-04T06:06:42.703Z,0.10
2018-08-04T06:07:42.705Z,0.10
2018-08-04T06:08:42.709Z,0.10
2018-08-04T06:09:42.710Z,0.10
2018-08-04T06:10:42.714Z,0.10
2018-08-04T06:11:42.717Z,0.10
2018-08-04T06:12:42.718Z,0.10
2018-08-04T06:13:42.725Z,0.10
2018-08-04T06:14:42.728Z,0.10
2018-08-04T06:15:42.727Z,0.10
2018-08-04T06:16:42.732Z,0.10
2018-08-04T06:17:42.772Z,0.10
2018-08-04T06:18:42.736Z,0.10
2018-08-04T06:19:42.740Z,0.10
2018-08-04T06:20:42.747Z,0.10
2018-08-04T06:21:42.745Z,0.10
2018-08-04T06:22:42.748Z,0.10
2018-08-04T06:23:42.750Z,0.10
2018-08-04T06:24:42.758Z,0.10
2018-08-04T06:25:42.760Z,0.10
2018-08-04T06:26:42.782Z,0.10
2018-08-04T06:27:42.767Z,0.10
2018-08-04T06:28:42.785Z,0.10
2018-08-04T06:29:42.774Z,0.10
2018-08-04T06:30:42.776Z,0.10
2018-08-04T06:31:42.787Z,0.10
2018-08-04T06:32:42.781Z,0.10
2018-08-04T06:33:42.784Z,0.10
2018-08-04T06:34:42.788Z,0.10
2018-08-04T06:35:42.793Z,0.10
2018-08-04T06:36:42.795Z,0.10
2018-08-04T06:37:42.799Z,0.10
2018-08-04T06:38:42.804Z,0.10
2018-08-04T06:39:42.808Z,0.10
2018-08-04T06:40:42.812Z,0.10
2018-08-04T06:41:42.842Z,0.20
2018-08-04T06:42:42.821Z,0.10
2018-08-04T06:43:42.827Z,0.10
2018-08-04T06:44:42.826Z,0.10
2018-08-04T06:45:42.831Z,0.10
2018-08-04T06:46:42.834Z,0.10
2018-08-04T06:47:42.837Z,0.10
2018-08-04T06:48:42.845Z,0.10
2018-08-04T06:49:42.847Z,0.10
2018-08-04T06:50:42.858Z,0.10
2018-08-04T06:51:42.855Z,0.10
2018-08-04T06:52:42.863Z,0.10
2018-08-04T06:53:42.867Z,0.10
2018-08-04T06:54:42.867Z,0.10
2018-08-04T06:55:42.873Z,0.10
2018-08-04T06:56:42.885Z,0.10
2018-08-04T06:57:42.885Z,0.10
2018-08-04T06:58:42.900Z,0.10
2018-08-04T06:59:42.893Z,0.10
2018-08-04T07:00:42.939Z,0.10
2018-08-04T07:01:43.615Z,0.10
2018-08-04T07:02:42.901Z,0.10
2018-08-04T07:03:42.918Z,0.10
2018-08-04T07:04:42.923Z,0.10
2018-08-04T07:05:42.931Z,0.20
2018-08-04T07:06:42.925Z,0.10
2018-08-04T07:07:42.942Z,0.10
2018-08-04T07:08:42.936Z,0.10
2018-08-04T07:09:42.941Z,0.10
2018-08-04T07:10:42.948Z,0.10
2018-08-04T07:11:42.949Z,0.10
2018-08-04T07:12:42.970Z,0.10
2018-08-04T07:13:42.972Z,0.10
2018-08-04T07:14:42.976Z,0.20
2018-08-04T07:15:42.990Z,0.10
2018-08-04T07:16:43.001Z,0.10
2018-08-04T07:17:42.989Z,0.10
2018-08-04T07:18:42.992Z,0.10
2018-08-04T07:19:43.001Z,0.10
2018-08-04T07:20:43.024Z,0.10
2018-08-04T07:21:43.078Z,0.10
2018-08-04T07:22:43.027Z,0.10
2018-08-04T07:23:43.026Z,0.20
2018-08-04T07:24:45.689Z,0.20
2018-08-04T07:25:43.036Z,0.20
2018-08-04T07:26:43.029Z,0.20
2018-08-04T07:27:44.157Z,0.20
2018-08-04T07:28:43.080Z,0.20
2018-08-04T07:29:43.069Z,0.30
2018-08-04T07:30:43.121Z,0.20
2018-08-04T07:31:43.103Z,0.40
2018-08-04T07:32:43.098Z,0.30
2018-08-04T07:33:43.125Z,0.30
2018-08-04T07:34:43.124Z,0.40
2018-08-04T07:35:43.183Z,0.30
2018-08-04T07:36:43.146Z,0.40
2018-08-04T07:37:43.152Z,0.40
2018-08-04T07:38:43.162Z,0.40
2018-08-04T07:39:43.191Z,0.40
2018-08-04T07:40:43.208Z,0.40
2018-08-04T07:41:43.213Z,0.40
2018-08-04T07:42:43.220Z,0.40
2018-08-04T07:43:43.236Z,0.40
2018-08-04T07:44:43.256Z,0.40
2018-08-04T07:45:43.258Z,0.50
2018-08-04T07:46:43.570Z,0.50
2018-08-04T07:47:43.276Z,0.40
2018-08-04T07:48:43.289Z,0.50
2018-08-04T07:49:43.302Z,0.40
2018-08-04T07:50:43.320Z,0.50
2018-08-04T07:51:43.332Z,0.60
2018-08-04T07:52:43.349Z,0.50
2018-08-04T07:53:43.372Z,0.50
2018-08-04T07:54:43.418Z,0.50
2018-08-04T07:55:43.420Z,0.60
2018-08-04T07:56:43.430Z,0.60
2018-08-04T07:57:43.430Z,0.60
2018-08-04T07:58:43.448Z,0.60
2018-08-04T07:59:43.504Z,0.60
2018-08-04T08:00:43.503Z,0.70
2018-08-04T08:01:43.518Z,0.70
2018-08-04T08:02:43.507Z,0.60
2018-08-04T08:03:43.526Z,0.80
2018-08-04T08:04:43.537Z,0.70
2018-08-04T08:05:43.588Z,0.70
2018-08-04T08:06:43.590Z,0.80
2018-08-04T08:07:43.581Z,0.60
2018-08-04T08:08:43.599Z,0.60
2018-08-04T08:09:43.623Z,0.80
2018-08-04T08:10:43.689Z,0.80
2018-08-04T08:11:43.667Z,0.70
2018-08-04T08:12:43.675Z,0.70
2018-08-04T08:13:43.680Z,0.90
2018-08-04T08:14:43.694Z,0.90
2018-08-04T08:15:43.719Z,0.90
2018-08-04T08:16:43.747Z,0.90
2018-08-04T08:17:43.748Z,0.90
2018-08-04T08:18:43.763Z,0.90
2018-08-04T08:19:43.780Z,0.90
2018-08-04T08:20:43.793Z,0.90
2018-08-04T08:21:43.809Z,1.10
2018-08-04T08:22:43.828Z,1.20
2018-08-04T08:23:43.843Z,1.10
2018-08-04T08:24:43.867Z,1.20
2018-08-04T08:25:43.885Z,1.10
2018-08-04T08:26:43.915Z,1.10
2018-08-04T08:27:43.920Z,1.10
2018-08-04T08:28:43.956Z,1.20
2018-08-04T08:29:43.953Z,1.10
2018-08-04T08:30:43.969Z,1.10
2018-08-04T08:31:43.993Z,1.10
2018-08-04T08:32:44.041Z,1.10
2018-08-04T08:33:44.025Z,1.30
2018-08-04T08:34:44.044Z,1.40
2018-08-04T08:35:44.065Z,1.20
2018-08-04T08:36:44.072Z,1.20
2018-08-04T08:37:44.089Z,1.20
2018-08-04T08:38:44.112Z,1.30
2018-08-04T08:39:44.135Z,1.30
2018-08-04T08:40:44.151Z,1.40
2018-08-04T08:41:44.171Z,1.40
2018-08-04T08:42:44.192Z,1.40
2018-08-04T08:43:44.215Z,1.60
2018-08-04T08:44:44.227Z,1.40
2018-08-04T08:45:44.268Z,1.40
2018-08-04T08:46:44.255Z,1.40
2018-08-04T08:47:44.290Z,1.60
2018-08-04T08:48:44.297Z,1.50
2018-08-04T08:49:44.320Z,1.50
2018-08-04T08:50:44.388Z,1.60
2018-08-04T08:51:44.386Z,1.70
2018-08-04T08:52:44.382Z,1.70
2018-08-04T08:53:44.481Z,1.70
2018-08-04T08:54:44.414Z,1.90
2018-08-04T08:55:44.431Z,1.80
2018-08-04T08:56:44.463Z,1.80
2018-08-04T08:57:44.519Z,1.80
2018-08-04T08:58:44.501Z,1.70
2018-08-04T08:59:44.510Z,1.90
2018-08-04T09:00:44.525Z,2.00
2018-08-04T09:01:44.546Z,1.90
2018-08-04T09:02:44.565Z,1.80
2018-08-04T09:03:44.655Z,2.10
2018-08-04T09:04:44.606Z,2.00
2018-08-04T09:05:44.640Z,2.30
2018-08-04T09:06:44.645Z,2.30
2018-08-04T09:07:44.773Z,2.20
2018-08-04T09:08:44.711Z,2.10
2018-08-04T09:09:44.697Z,2.10
2018-08-04T09:10:44.719Z,2.30
2018-08-04T09:11:44.742Z,2.00
2018-08-04T09:12:44.766Z,2.20
2018-08-04T09:13:44.777Z,2.20
2018-08-04T09:14:44.803Z,2.30
2018-08-04T09:15:44.859Z,2.40
2018-08-04T09:16:44.837Z,2.50
2018-08-04T09:17:44.857Z,2.50
2018-08-04T09:18:44.874Z,2.60
2018-08-04T09:19:44.898Z,3.10
2018-08-04T09:20:44.924Z,3.00
2018-08-04T09:21:44.935Z,2.70
2018-08-04T09:22:44.968Z,2.90
2018-08-04T09:23:44.977Z,2.90
2018-08-04T09:24:44.996Z,2.50
2018-08-04T09:25:45.021Z,2.60
2018-08-04T09:26:45.046Z,3.10
2018-08-04T09:27:45.075Z,3.00
2018-08-04T09:28:45.119Z,3.00
2018-08-04T09:29:45.132Z,3.20
2018-08-04T09:30:45.138Z,3.10
2018-08-04T09:31:45.140Z,3.10
2018-08-04T09:32:45.188Z,3.20
2018-08-04T09:33:45.183Z,3.40
2018-08-04T09:34:45.198Z,3.50
2018-08-04T09:35:45.215Z,3.50
2018-08-04T09:36:45.241Z,3.70
2018-08-04T09:37:45.270Z,3.50
2018-08-04T09:38:45.273Z,3.70
2018-08-04T09:39:45.300Z,3.60
2018-08-04T09:40:45.334Z,3.60
2018-08-04T09:41:45.337Z,4.10
2018-08-04T09:42:45.366Z,3.90
2018-08-04T09:43:45.380Z,3.90
2018-08-04T09:44:45.401Z,3.80
2018-08-04T09:45:45.419Z,3.90
2018-08-04T09:46:45.443Z,4.20
2018-08-04T09:47:45.462Z,4.40
2018-08-04T09:48:45.482Z,4.10
2018-08-04T09:49:45.508Z,4.10
2018-08-04T09:50:45.529Z,4.20
2018-08-04T09:51:45.546Z,4.30
2018-08-04T09:52:45.571Z,4.30
2018-08-04T09:53:45.585Z,4.50
2018-08-04T09:54:45.610Z,4.70
2018-08-04T09:55:45.627Z,4.30
2018-08-04T09:56:45.676Z,4.50
2018-08-04T09:57:45.666Z,5.00
2018-08-04T09:58:45.699Z,4.60
2018-08-04T09:59:45.724Z,5.00
2018-08-04T10:00:45.729Z,5.60
2018-08-04T10:01:45.754Z,5.50
2018-08-04T10:02:45.775Z,5.90
2018-08-04T10:03:45.793Z,6.10
2018-08-04T10:04:45.813Z,6.10
2018-08-04T10:05:45.833Z,6.20
2018-08-04T10:06:45.856Z,6.00
2018-08-04T10:07:45.877Z,6.00
2018-08-04T10:08:45.898Z,5.90
2018-08-04T10:09:45.919Z,5.40
2018-08-04T10:10:45.942Z,5.50
2018-08-04T10:11:45.953Z,5.40
2018-08-04T10:12:45.981Z,5.80
2018-08-04T10:13:46.001Z,5.50
2018-08-04T10:14:46.020Z,5.30
2018-08-04T10:15:46.043Z,5.30
2018-08-04T10:16:46.066Z,5.30
2018-08-04T10:17:46.108Z,5.60
2018-08-04T10:18:46.118Z,5.70
2018-08-04T10:19:46.164Z,5.00
2018-08-04T10:20:46.173Z,5.10
2018-08-04T10:21:46.165Z,5.10
2018-08-04T10:22:46.184Z,5.00
2018-08-04T10:23:46.207Z,4.80
2018-08-04T10:24:46.226Z,4.80
2018-08-04T10:25:46.245Z,5.40
2018-08-04T10:26:46.274Z,5.10
2018-08-04T10:27:46.285Z,5.00
2018-08-04T10:28:46.314Z,4.60
2018-08-04T10:29:46.331Z,5.00
2018-08-04T10:30:46.379Z,5.40
2018-08-04T10:31:46.365Z,5.30
2018-08-04T10:32:46.428Z,5.30
2018-08-04T10:33:46.409Z,5.40
2018-08-04T10:34:46.424Z,5.60
2018-08-04T10:35:46.460Z,5.10
2018-08-04T10:36:46.470Z,5.80
2018-08-04T10:37:46.483Z,5.00
2018-08-04T10:38:46.499Z,5.70
2018-08-04T10:39:46.525Z,5.80
2018-08-04T10:40:46.542Z,5.80
2018-08-04T10:41:46.555Z,6.20
2018-08-04T10:42:46.592Z,5.90
2018-08-04T10:43:46.600Z,5.70
2018-08-04T10:44:46.650Z,5.90
2018-08-04T10:45:46.652Z,6.00
2018-08-04T10:46:46.656Z,6.10
2018-08-04T10:47:46.684Z,6.10
2018-08-04T10:48:46.704Z,6.50
2018-08-04T10:49:46.714Z,6.30
2018-08-04T10:50:46.770Z,6.60
2018-08-04T10:51:46.767Z,7.20
2018-08-04T10:52:46.790Z,7.30
2018-08-04T10:53:46.802Z,7.20
2018-08-04T10:54:46.834Z,7.30
2018-08-04T10:55:46.840Z,7.80
2018-08-04T10:56:46.871Z,7.30
2018-08-04T10:57:46.884Z,7.70
2018-08-04T10:58:46.912Z,7.80
2018-08-04T10:59:46.922Z,8.10
2018-08-04T11:00:46.947Z,8.30
2018-08-04T11:01:46.957Z,16.90
2018-08-04T11:02:46.987Z,8.40
2018-08-04T11:03:47.019Z,9.20
2018-08-04T11:04:47.029Z,8.70
2018-08-04T11:05:47.048Z,8.70
2018-08-04T11:06:47.072Z,9.10
2018-08-04T11:07:47.093Z,9.00
2018-08-04T11:08:47.114Z,9.00
2018-08-04T11:09:47.138Z,9.70
2018-08-04T11:10:47.157Z,9.60
2018-08-04T11:11:47.177Z,9.70
2018-08-04T11:12:47.196Z,8.90
2018-08-04T11:13:47.222Z,8.70
2018-08-04T11:14:47.237Z,7.70
2018-08-04T11:15:47.262Z,7.90
2018-08-04T11:16:47.295Z,6.40
2018-08-04T11:17:47.300Z,5.30
2018-08-04T11:18:47.323Z,4.90
2018-08-04T11:19:47.338Z,5.00
2018-08-04T11:20:47.358Z,4.20
2018-08-04T11:21:47.371Z,4.40
2018-08-04T11:22:47.398Z,4.60
2018-08-04T11:23:47.422Z,4.60
2018-08-04T11:24:47.431Z,4.40
2018-08-04T11:25:47.451Z,4.80
2018-08-04T11:26:47.512Z,4.50
2018-08-04T11:27:47.502Z,4.00
2018-08-04T11:28:47.542Z,3.40
2018-08-04T11:29:47.541Z,3.20
2018-08-04T11:30:47.601Z,3.30
2018-08-04T11:31:47.557Z,3.70
2018-08-04T11:32:47.580Z,4.10
2018-08-04T11:33:47.603Z,4.20
2018-08-04T11:34:47.619Z,4.00
2018-08-04T11:35:47.637Z,3.90
2018-08-04T11:36:47.659Z,3.60
2018-08-04T11:37:47.712Z,3.20
2018-08-04T11:38:47.690Z,3.30
2018-08-04T11:39:47.704Z,3.00
2018-08-04T11:40:47.724Z,2.80
2018-08-04T11:41:47.744Z,2.30
2018-08-04T11:42:47.761Z,2.10
2018-08-04T11:43:47.777Z,2.30
2018-08-04T11:44:47.807Z,2.20
2018-08-04T11:45:47.813Z,2.00
2018-08-04T11:46:47.827Z,1.70
2018-08-04T11:47:47.861Z,1.70
2018-08-04T11:48:47.874Z,1.20
2018-08-04T11:49:47.876Z,1.10
2018-08-04T11:50:47.892Z,1.20
2018-08-04T11:51:47.899Z,0.90
2018-08-04T11:52:47.923Z,0.60
2018-08-04T11:53:47.945Z,0.80
2018-08-04T11:54:47.951Z,0.70
2018-08-04T11:55:47.965Z,0.60
2018-08-04T11:56:47.979Z,0.50
2018-08-04T11:57:47.993Z,0.50
2018-08-04T11:58:48.063Z,0.40
2018-08-04T11:59:48.028Z,0.40
2018-08-04T12:00:48.029Z,0.30
2018-08-04T12:01:48.113Z,0.30
2018-08-04T12:02:48.055Z,0.30
2018-08-04T12:03:48.059Z,0.30
2018-08-04T12:04:48.100Z,0.20
2018-08-04T12:05:48.097Z,0.20
2018-08-04T12:06:48.138Z,0.20
2018-08-04T12:07:48.117Z,0.20
2018-08-04T12:08:48.124Z,0.20
2018-08-04T12:09:48.128Z,0.20
2018-08-04T12:10:48.135Z,0.20
2018-08-04T12:11:48.148Z,0.10
2018-08-04T12:12:48.170Z,0.10
2018-08-04T12:13:48.167Z,0.10
2018-08-04T12:14:48.205Z,0.20
2018-08-04T12:15:48.191Z,0.20
2018-08-04T12:16:48.193Z,0.10
2018-08-04T12:17:48.205Z,0.10
2018-08-04T12:18:48.214Z,0.10
2018-08-04T12:19:48.220Z,0.10
2018-08-04T12:20:48.232Z,0.10
2018-08-04T12:21:48.242Z,0.10
2018-08-04T12:22:48.264Z,0.10
2018-08-04T12:23:48.306Z,0.10
2018-08-04T12:24:48.324Z,0.10
2018-08-04T12:25:48.326Z,0.10
2018-08-04T12:26:48.313Z,0.10
2018-08-04T12:27:48.317Z,0.10
2018-08-04T12:28:48.315Z,0.10
2018-08-04T12:29:48.311Z,0.10
2018-08-04T12:30:48.319Z,0.10
2018-08-04T12:31:48.330Z,0.10
2018-08-04T12:32:48.334Z,0.10
2018-08-04T12:33:48.337Z,0.10
2018-08-04T12:34:48.345Z,0.10
2018-08-04T12:35:48.354Z,0.10
2018-08-04T12:36:48.364Z,0.10
2018-08-04T12:37:48.372Z,0.10
2018-08-04T12:38:48.379Z,0.10
2018-08-04T12:39:48.406Z,0.10
2018-08-04T12:40:48.395Z,0.10
2018-08-04T12:41:48.401Z,0.10
2018-08-04T12:42:48.412Z,0.10
2018-08-04T12:43:48.430Z,0.10
2018-08-04T12:44:48.429Z,0.10
2018-08-04T12:45:48.444Z,0.20
2018-08-04T12:46:48.436Z,0.20
2018-08-04T12:47:48.464Z,0.20
2018-08-04T12:48:48.457Z,0.20
2018-08-04T12:49:48.466Z,0.20
2018-08-04T12:50:48.466Z,0.20
2018-08-04T12:51:48.515Z,0.10
2018-08-04T12:52:48.576Z,0.30
2018-08-04T12:53:48.583Z,0.20
2018-08-04T12:54:48.589Z,0.20
2018-08-04T12:55:48.588Z,0.20
2018-08-04T12:56:48.607Z,0.20
2018-08-04T12:57:48.613Z,0.20
2018-08-04T12:58:48.598Z,0.20
2018-08-04T12:59:48.527Z,0.20
2018-08-04T13:00:48.535Z,0.20
2018-08-04T13:01:48.567Z,0.20
2018-08-04T13:02:48.544Z,0.20
2018-08-04T13:03:48.564Z,0.20
2018-08-04T13:04:48.580Z,0.20
2018-08-04T13:05:48.606Z,0.20
2018-08-04T13:06:48.576Z,0.30
2018-08-04T13:07:48.594Z,0.30
2018-08-04T13:08:48.634Z,0.30
2018-08-04T13:09:48.700Z,0.20
2018-08-04T13:10:48.657Z,0.30
2018-08-04T13:11:48.700Z,0.20
2018-08-04T13:12:48.707Z,0.30
2018-08-04T13:13:48.698Z,0.30
2018-08-04T13:14:48.720Z,0.30
2018-08-04T13:15:48.736Z,0.30
2018-08-04T13:16:48.690Z,0.30
2018-08-04T13:17:48.741Z,0.20
2018-08-04T13:18:48.738Z,0.30
2018-08-04T13:19:48.745Z,0.20
2018-08-04T13:20:48.758Z,0.30
2018-08-04T13:21:48.768Z,0.20
2018-08-04T13:22:48.774Z,0.30
2018-08-04T13:23:48.778Z,0.30
2018-08-04T13:24:48.788Z,0.30
2018-08-04T13:25:48.807Z,0.30
2018-08-04T13:26:48.808Z,0.30
2018-08-04T13:27:48.783Z,0.30
2018-08-04T13:28:48.809Z,0.30
2018-08-04T13:29:48.823Z,0.20
2018-08-04T13:30:48.815Z,0.30
2018-08-04T13:31:48.827Z,0.30
2018-08-04T13:32:48.836Z,0.20
2018-08-04T13:33:48.843Z,0.30
2018-08-04T13:34:48.853Z,0.30
2018-08-04T13:35:48.860Z,0.30
2018-08-04T13:36:48.872Z,0.30
2018-08-04T13:37:48.877Z,0.30
2018-08-04T13:38:48.896Z,0.30
2018-08-04T13:39:48.901Z,0.20
2018-08-04T13:40:48.911Z,0.20
2018-08-04T13:41:48.919Z,0.20
2018-08-04T13:42:48.964Z,0.20
2018-08-04T13:43:48.935Z,0.20
2018-08-04T13:44:48.947Z,0.20
2018-08-04T13:45:48.955Z,0.20
2018-08-04T13:46:48.967Z,0.30
2018-08-04T13:47:48.978Z,0.30
2018-08-04T13:48:48.986Z,0.20
2018-08-04T13:49:48.992Z,0.30
2018-08-04T13:50:49.004Z,0.20
2018-08-04T13:51:49.020Z,0.20
2018-08-04T13:52:49.020Z,0.30
2018-08-04T13:53:49.030Z,0.30
2018-08-04T13:54:49.039Z,0.20
2018-08-04T13:55:49.052Z,0.20
2018-08-04T13:56:49.076Z,0.30
2018-08-04T13:57:49.068Z,0.20
2018-08-04T13:58:49.119Z,0.30
2018-08-04T13:59:49.160Z,0.30
2018-08-04T14:00:49.098Z,0.20
2018-08-04T14:01:49.177Z,0.20
2018-08-04T14:02:49.116Z,0.30
2018-08-04T14:03:49.125Z,0.30
2018-08-04T14:04:49.129Z,0.20
2018-08-04T14:05:49.149Z,0.30
2018-08-04T14:06:49.165Z,0.20
2018-08-04T14:07:49.164Z,0.20
2018-08-04T14:08:49.166Z,0.20
2018-08-04T14:09:49.194Z,0.30
2018-08-04T14:10:49.190Z,0.20
2018-08-04T14:11:49.197Z,0.30
2018-08-04T14:12:49.221Z,0.20
2018-08-04T14:13:49.219Z,0.20
2018-08-04T14:14:49.236Z,0.30
2018-08-04T14:15:49.235Z,0.20
2018-08-04T14:16:49.239Z,0.30
2018-08-04T14:17:49.249Z,0.30
2018-08-04T14:18:49.257Z,0.30
2018-08-04T14:19:49.292Z,0.30
2018-08-04T14:20:49.313Z,0.20
2018-08-04T14:21:49.288Z,0.20
2018-08-04T14:22:49.331Z,0.20
2018-08-04T14:23:49.304Z,0.20
2018-08-04T14:24:49.313Z,0.20
2018-08-04T14:25:49.319Z,0.20
2018-08-04T14:26:49.397Z,0.20
2018-08-04T14:27:49.336Z,0.20
2018-08-04T14:28:49.490Z,0.20
2018-08-04T14:29:49.356Z,0.20